sensor_id;sensor_type;location;lat;lon;timestamp;P1;durP1;ratioP1;P2;durP2;ratioP2
85121;SDS011;75480;52.260;20.916;2024-02-14T18:04:18;9.85;;;5.40;;
85121;SDS011;75480;52.260;20.916;2024-02-14T18:05:50;9.43;;;5.15;;
85121;SDS011;75480;52.260;20.916;2024-02-14T18:07:20;9.43;;;4.78;;
85121;SDS011;75480;52.260;20.916;2024-02-14T18:08:51;8.77;;;4.65;;
85121;SDS011;75480;52.260;20.916;2024-02-14T18:10:22;10.95;;;4.30;;
85121;SDS011;75480;52.260;20.916;2024-02-14T18:11:54;12.43;;;4.68;;
85121;SDS011;75480;52.260;20.916;2024-02-14T18:13:24;10.43;;;4.72;;
85121;SDS011;75480;52.260;20.916;2024-02-14T18:14:55;11.05;;;4.72;;
85121;SDS011;75480;52.260;20.916;2024-02-14T18:16:27;13.70;;;4.53;;
85121;SDS011;75480;52.260;20.916;2024-02-14T18:17:57;9.38;;;4.63;;
85121;SDS011;75480;52.260;20.916;2024-02-14T18:19:28;6.68;;;4.28;;
85121;SDS011;75480;52.260;20.916;2024-02-14T18:20:59;12.15;;;5.18;;
85121;SDS011;75480;52.260;20.916;2024-02-14T18:22:29;8.57;;;4.38;;
85121;SDS011;75480;52.260;20.916;2024-02-14T18:24:01;8.43;;;4.45;;
85121;SDS011;75480;52.260;20.916;2024-02-14T18:25:31;7.88;;;4.47;;
85121;SDS011;75480;52.260;20.916;2024-02-14T18:27:02;6.10;;;4.05;;
85121;SDS011;75480;52.260;20.916;2024-02-14T18:28:33;7.47;;;3.92;;
85121;SDS011;75480;52.260;20.916;2024-02-14T18:30:04;9.43;;;4.75;;
85121;SDS011;75480;52.260;20.916;2024-02-14T18:31:35;61.60;;;8.88;;
85121;SDS011;75480;52.260;20.916;2024-02-14T18:33:06;15.23;;;5.32;;
85121;SDS011;75480;52.260;20.916;2024-02-14T18:34:41;7.53;;;4.50;;
85121;SDS011;75480;52.260;20.916;2024-02-14T18:36:11;9.75;;;4.38;;
85121;SDS011;75480;52.260;20.916;2024-02-14T18:39:14;10.18;;;4.15;;
85121;SDS011;75480;52.260;20.916;2024-02-14T18:40:45;9.13;;;4.53;;
85121;SDS011;75480;52.260;20.916;2024-02-14T18:42:27;8.77;;;4.53;;
85121;SDS011;75480;52.260;20.916;2024-02-14T18:43:58;10.57;;;4.80;;
85121;SDS011;75480;52.260;20.916;2024-02-14T18:45:33;10.93;;;5.20;;
85121;SDS011;75480;52.260;20.916;2024-02-14T18:47:04;10.75;;;5.07;;
85121;SDS011;75480;52.260;20.916;2024-02-14T18:48:34;17.55;;;6.68;;
85121;SDS011;75480;52.260;20.916;2024-02-14T18:50:07;11.05;;;5.95;;
85121;SDS011;75480;52.260;20.916;2024-02-14T18:51:38;10.68;;;5.70;;
85121;SDS011;75480;52.260;20.916;2024-02-14T18:53:11;9.57;;;5.65;;
85121;SDS011;75480;52.260;20.916;2024-02-14T18:54:41;13.30;;;5.82;;
85121;SDS011;75480;52.260;20.916;2024-02-14T18:56:16;15.52;;;6.07;;
85121;SDS011;75480;52.260;20.916;2024-02-14T18:57:55;10.43;;;5.63;;
85121;SDS011;75480;52.260;20.916;2024-02-14T18:59:26;15.32;;;7.03;;
85121;SDS011;75480;52.260;20.916;2024-02-14T19:00:57;12.90;;;6.20;;
85121;SDS011;75480;52.260;20.916;2024-02-14T19:02:27;13.27;;;6.72;;
85121;SDS011;75480;52.260;20.916;2024-02-14T19:04:03;12.43;;;7.07;;
85121;SDS011;75480;52.260;20.916;2024-02-14T19:05:35;12.85;;;6.78;;
85121;SDS011;75480;52.260;20.916;2024-02-14T19:07:05;12.50;;;6.75;;
85121;SDS011;75480;52.260;20.916;2024-02-14T19:08:38;15.82;;;7.45;;
85121;SDS011;75480;52.260;20.916;2024-02-14T19:10:09;14.30;;;6.97;;
85121;SDS011;75480;52.260;20.916;2024-02-14T19:11:41;13.52;;;7.80;;
85121;SDS011;75480;52.260;20.916;2024-02-14T19:13:12;13.10;;;7.28;;
85121;SDS011;75480;52.260;20.916;2024-02-14T19:14:42;13.70;;;6.78;;
85121;SDS011;75480;52.260;20.916;2024-02-14T19:16:13;13.10;;;7.47;;
85121;SDS011;75480;52.260;20.916;2024-02-14T19:17:44;11.30;;;7.18;;
85121;SDS011;75480;52.260;20.916;2024-02-14T19:19:15;14.52;;;6.80;;
85121;SDS011;75480;52.260;20.916;2024-02-14T19:20:46;11.95;;;6.75;;
85121;SDS011;75480;52.260;20.916;2024-02-14T19:22:19;15.98;;;7.10;;
85121;SDS011;75480;52.260;20.916;2024-02-14T19:23:50;13.77;;;7.70;;
85121;SDS011;75480;52.260;20.916;2024-02-14T19:25:20;12.23;;;7.28;;
85121;SDS011;75480;52.260;20.916;2024-02-14T19:26:51;16.50;;;7.45;;
85121;SDS011;75480;52.260;20.916;2024-02-14T19:28:22;15.18;;;7.68;;
85121;SDS011;75480;52.260;20.916;2024-02-14T19:29:52;12.70;;;6.95;;
85121;SDS011;75480;52.260;20.916;2024-02-14T19:31:23;15.07;;;7.63;;
85121;SDS011;75480;52.260;20.916;2024-02-14T19:32:54;15.38;;;7.22;;
85121;SDS011;75480;52.260;20.916;2024-02-14T19:34:25;13.20;;;7.70;;
85121;SDS011;75480;52.260;20.916;2024-02-14T19:35:55;15.05;;;7.32;;
85121;SDS011;75480;52.260;20.916;2024-02-14T19:37:26;13.25;;;7.43;;
85121;SDS011;75480;52.260;20.916;2024-02-14T19:38:57;18.48;;;7.75;;
85121;SDS011;75480;52.260;20.916;2024-02-14T19:40:28;15.38;;;7.32;;
85121;SDS011;75480;52.260;20.916;2024-02-14T19:41:58;17.63;;;8.43;;
85121;SDS011;75480;52.260;20.916;2024-02-14T19:43:29;14.88;;;7.32;;
85121;SDS011;75480;52.260;20.916;2024-02-14T19:45:00;14.20;;;8.25;;
85121;SDS011;75480;52.260;20.916;2024-02-14T19:46:30;14.60;;;8.73;;
85121;SDS011;75480;52.260;20.916;2024-02-14T19:48:01;14.35;;;7.45;;
85121;SDS011;75480;52.260;20.916;2024-02-14T19:49:32;15.43;;;7.30;;
85121;SDS011;75480;52.260;20.916;2024-02-14T19:51:03;15.65;;;7.53;;
85121;SDS011;75480;52.260;20.916;2024-02-14T19:52:34;15.77;;;8.05;;
85121;SDS011;75480;52.260;20.916;2024-02-14T19:54:05;17.77;;;8.57;;
85121;SDS011;75480;52.260;20.916;2024-02-14T19:55:35;19.25;;;8.30;;
85121;SDS011;75480;52.260;20.916;2024-02-14T19:57:06;17.38;;;9.18;;
85121;SDS011;75480;52.260;20.916;2024-02-14T19:58:37;18.33;;;9.15;;
85121;SDS011;75480;52.260;20.916;2024-02-14T20:00:08;12.90;;;8.18;;
85121;SDS011;75480;52.260;20.916;2024-02-14T20:01:39;14.40;;;8.27;;
85121;SDS011;75480;52.260;20.916;2024-02-14T20:03:10;15.98;;;8.32;;
85121;SDS011;75480;52.260;20.916;2024-02-14T20:04:41;17.30;;;8.23;;
85121;SDS011;75480;52.260;20.916;2024-02-14T20:06:12;16.80;;;8.80;;
85121;SDS011;75480;52.260;20.916;2024-02-14T20:07:43;18.92;;;8.85;;
85121;SDS011;75480;52.260;20.916;2024-02-14T20:09:14;17.73;;;9.10;;
85121;SDS011;75480;52.260;20.916;2024-02-14T20:10:45;18.75;;;10.05;;
85121;SDS011;75480;52.260;20.916;2024-02-14T20:12:16;17.83;;;8.55;;
85121;SDS011;75480;52.260;20.916;2024-02-14T20:13:48;17.58;;;8.90;;
85121;SDS011;75480;52.260;20.916;2024-02-14T20:15:18;23.00;;;9.55;;
85121;SDS011;75480;52.260;20.916;2024-02-14T20:16:49;18.98;;;9.20;;
85121;SDS011;75480;52.260;20.916;2024-02-14T20:18:20;20.60;;;9.35;;
85121;SDS011;75480;52.260;20.916;2024-02-14T20:19:50;18.40;;;9.15;;
85121;SDS011;75480;52.260;20.916;2024-02-14T20:21:21;21.42;;;8.45;;
85121;SDS011;75480;52.260;20.916;2024-02-14T20:22:53;15.52;;;9.05;;
85121;SDS011;75480;52.260;20.916;2024-02-14T20:24:24;12.63;;;8.40;;
85121;SDS011;75480;52.260;20.916;2024-02-14T20:25:55;17.25;;;9.43;;
85121;SDS011;75480;52.260;20.916;2024-02-14T20:27:26;19.05;;;8.73;;
85121;SDS011;75480;52.260;20.916;2024-02-14T20:28:56;14.95;;;9.05;;
85121;SDS011;75480;52.260;20.916;2024-02-14T20:30:27;15.45;;;8.05;;
85121;SDS011;75480;52.260;20.916;2024-02-14T20:32:00;14.68;;;8.05;;
85121;SDS011;75480;52.260;20.916;2024-02-14T20:33:32;16.55;;;9.38;;
85121;SDS011;75480;52.260;20.916;2024-02-14T20:35:04;14.25;;;8.07;;
85121;SDS011;75480;52.260;20.916;2024-02-14T20:36:35;16.48;;;8.73;;
85121;SDS011;75480;52.260;20.916;2024-02-14T20:38:07;16.02;;;8.02;;
85121;SDS011;75480;52.260;20.916;2024-02-14T20:39:40;18.70;;;8.93;;
85121;SDS011;75480;52.260;20.916;2024-02-14T20:41:11;15.32;;;7.60;;
85121;SDS011;75480;52.260;20.916;2024-02-14T20:42:44;18.48;;;9.65;;
85121;SDS011;75480;52.260;20.916;2024-02-14T20:44:15;14.52;;;8.18;;
85121;SDS011;75480;52.260;20.916;2024-02-14T20:45:47;19.58;;;8.13;;
85121;SDS011;75480;52.260;20.916;2024-02-14T20:47:18;15.73;;;8.40;;
85121;SDS011;75480;52.260;20.916;2024-02-14T20:48:52;17.58;;;9.18;;
85121;SDS011;75480;52.260;20.916;2024-02-14T20:50:23;14.27;;;7.95;;
85121;SDS011;75480;52.260;20.916;2024-02-14T20:51:53;15.68;;;8.80;;
85121;SDS011;75480;52.260;20.916;2024-02-14T20:53:24;14.13;;;7.85;;
85121;SDS011;75480;52.260;20.916;2024-02-14T20:54:55;15.45;;;8.82;;
85121;SDS011;75480;52.260;20.916;2024-02-14T20:56:26;18.10;;;8.57;;
85121;SDS011;75480;52.260;20.916;2024-02-14T20:57:57;13.70;;;8.93;;
85121;SDS011;75480;52.260;20.916;2024-02-14T20:59:28;15.68;;;7.70;;
85121;SDS011;75480;52.260;20.916;2024-02-14T21:00:58;15.70;;;8.02;;
85121;SDS011;75480;52.260;20.916;2024-02-14T21:02:29;17.25;;;8.48;;
85121;SDS011;75480;52.260;20.916;2024-02-14T21:04:00;18.73;;;8.55;;
85121;SDS011;75480;52.260;20.916;2024-02-14T21:05:30;16.75;;;9.25;;
85121;SDS011;75480;52.260;20.916;2024-02-14T21:07:01;15.98;;;8.70;;
85121;SDS011;75480;52.260;20.916;2024-02-14T21:08:32;14.90;;;7.95;;
85121;SDS011;75480;52.260;20.916;2024-02-14T21:10:02;17.42;;;8.10;;
85121;SDS011;75480;52.260;20.916;2024-02-14T21:11:34;14.50;;;7.88;;
85121;SDS011;75480;52.260;20.916;2024-02-14T21:13:04;16.98;;;8.13;;
85121;SDS011;75480;52.260;20.916;2024-02-14T21:14:38;15.93;;;7.80;;
85121;SDS011;75480;52.260;20.916;2024-02-14T21:16:09;15.73;;;7.90;;
85121;SDS011;75480;52.260;20.916;2024-02-14T21:17:39;15.55;;;7.95;;
85121;SDS011;75480;52.260;20.916;2024-02-14T21:19:10;15.95;;;7.70;;
85121;SDS011;75480;52.260;20.916;2024-02-14T21:20:41;18.40;;;7.68;;
85121;SDS011;75480;52.260;20.916;2024-02-14T21:22:12;16.27;;;7.35;;
85121;SDS011;75480;52.260;20.916;2024-02-14T21:23:42;17.17;;;7.70;;
85121;SDS011;75480;52.260;20.916;2024-02-14T21:25:13;15.65;;;7.03;;
85121;SDS011;75480;52.260;20.916;2024-02-14T21:26:44;18.50;;;7.70;;
85121;SDS011;75480;52.260;20.916;2024-02-14T21:28:18;16.00;;;7.40;;
85121;SDS011;75480;52.260;20.916;2024-02-14T21:31:21;14.80;;;7.15;;
85121;SDS011;75480;52.260;20.916;2024-02-14T21:32:53;16.80;;;8.32;;
85121;SDS011;75480;52.260;20.916;2024-02-14T21:34:25;15.93;;;8.13;;
85121;SDS011;75480;52.260;20.916;2024-02-14T21:35:57;27.02;;;8.60;;
85121;SDS011;75480;52.260;20.916;2024-02-14T21:37:27;16.98;;;7.75;;
85121;SDS011;75480;52.260;20.916;2024-02-14T21:38:58;17.50;;;7.97;;
85121;SDS011;75480;52.260;20.916;2024-02-14T21:40:29;17.33;;;8.00;;
85121;SDS011;75480;52.260;20.916;2024-02-14T21:41:59;15.18;;;7.40;;
85121;SDS011;75480;52.260;20.916;2024-02-14T21:43:30;15.65;;;7.80;;
85121;SDS011;75480;52.260;20.916;2024-02-14T21:45:01;14.95;;;7.95;;
85121;SDS011;75480;52.260;20.916;2024-02-14T21:46:32;15.32;;;7.65;;
85121;SDS011;75480;52.260;20.916;2024-02-14T21:48:04;15.20;;;7.75;;
85121;SDS011;75480;52.260;20.916;2024-02-14T21:49:37;17.13;;;8.25;;
85121;SDS011;75480;52.260;20.916;2024-02-14T21:51:08;16.15;;;7.93;;
85121;SDS011;75480;52.260;20.916;2024-02-14T21:52:40;14.57;;;8.23;;
85121;SDS011;75480;52.260;20.916;2024-02-14T21:54:11;15.38;;;7.82;;
85121;SDS011;75480;52.260;20.916;2024-02-14T21:55:42;13.00;;;7.70;;
85121;SDS011;75480;52.260;20.916;2024-02-14T21:57:13;15.93;;;8.15;;
85121;SDS011;75480;52.260;20.916;2024-02-14T21:58:44;16.25;;;8.40;;
85121;SDS011;75480;52.260;20.916;2024-02-14T22:00:15;16.42;;;7.95;;
85121;SDS011;75480;52.260;20.916;2024-02-14T22:01:47;14.73;;;8.05;;
85121;SDS011;75480;52.260;20.916;2024-02-14T22:03:17;17.40;;;7.88;;
85121;SDS011;75480;52.260;20.916;2024-02-14T22:04:48;17.60;;;8.63;;
85121;SDS011;75480;52.260;20.916;2024-02-14T22:06:19;11.85;;;7.07;;
85121;SDS011;75480;52.260;20.916;2024-02-14T22:07:50;21.70;;;7.78;;
85121;SDS011;75480;52.260;20.916;2024-02-14T22:09:23;13.30;;;7.53;;
85121;SDS011;75480;52.260;20.916;2024-02-14T22:10:55;15.05;;;7.38;;
85121;SDS011;75480;52.260;20.916;2024-02-14T22:12:28;13.57;;;7.78;;
85121;SDS011;75480;52.260;20.916;2024-02-14T22:13:59;12.82;;;7.70;;
85121;SDS011;75480;52.260;20.916;2024-02-14T22:15:31;15.50;;;8.38;;
85121;SDS011;75480;52.260;20.916;2024-02-14T22:17:03;15.10;;;7.60;;
85121;SDS011;75480;52.260;20.916;2024-02-14T22:18:36;13.50;;;7.80;;
85121;SDS011;75480;52.260;20.916;2024-02-14T22:20:08;17.10;;;7.65;;
85121;SDS011;75480;52.260;20.916;2024-02-14T22:21:41;13.70;;;7.15;;
85121;SDS011;75480;52.260;20.916;2024-02-14T22:23:11;15.10;;;8.05;;
85121;SDS011;75480;52.260;20.916;2024-02-14T22:24:42;17.30;;;8.15;;
85121;SDS011;75480;52.260;20.916;2024-02-14T22:26:13;14.85;;;7.63;;
85121;SDS011;75480;52.260;20.916;2024-02-14T22:27:44;15.50;;;8.15;;
85121;SDS011;75480;52.260;20.916;2024-02-14T22:29:14;14.27;;;7.05;;
85121;SDS011;75480;52.260;20.916;2024-02-14T22:30:45;16.17;;;7.78;;
85121;SDS011;75480;52.260;20.916;2024-02-14T22:32:16;14.63;;;7.75;;
85121;SDS011;75480;52.260;20.916;2024-02-14T22:33:48;14.55;;;8.18;;
85121;SDS011;75480;52.260;20.916;2024-02-14T22:35:19;15.95;;;8.45;;
85121;SDS011;75480;52.260;20.916;2024-02-14T22:36:50;15.82;;;8.00;;
85121;SDS011;75480;52.260;20.916;2024-02-14T22:38:22;14.98;;;7.78;;
85121;SDS011;75480;52.260;20.916;2024-02-14T22:39:54;14.68;;;7.07;;
85121;SDS011;75480;52.260;20.916;2024-02-14T22:41:24;15.55;;;7.32;;
85121;SDS011;75480;52.260;20.916;2024-02-14T22:42:55;17.33;;;7.55;;
85121;SDS011;75480;52.260;20.916;2024-02-14T22:44:26;14.40;;;8.07;;
85121;SDS011;75480;52.260;20.916;2024-02-14T22:45:56;14.88;;;7.03;;
85121;SDS011;75480;52.260;20.916;2024-02-14T22:47:27;15.45;;;7.65;;
85121;SDS011;75480;52.260;20.916;2024-02-14T22:49:00;15.20;;;6.97;;
85121;SDS011;75480;52.260;20.916;2024-02-14T22:50:32;17.35;;;8.52;;
85121;SDS011;75480;52.260;20.916;2024-02-14T22:52:03;17.25;;;8.52;;
85121;SDS011;75480;52.260;20.916;2024-02-14T22:53:34;15.30;;;8.75;;
85121;SDS011;75480;52.260;20.916;2024-02-14T22:55:05;12.60;;;7.35;;
85121;SDS011;75480;52.260;20.916;2024-02-14T22:56:38;16.48;;;8.30;;
85121;SDS011;75480;52.260;20.916;2024-02-14T22:58:09;16.80;;;9.57;;
85121;SDS011;75480;52.260;20.916;2024-02-14T22:59:42;14.32;;;8.02;;
85121;SDS011;75480;52.260;20.916;2024-02-14T23:01:13;14.52;;;7.65;;
85121;SDS011;75480;52.260;20.916;2024-02-14T23:02:44;13.52;;;7.35;;
85121;SDS011;75480;52.260;20.916;2024-02-14T23:04:15;13.63;;;6.82;;
85121;SDS011;75480;52.260;20.916;2024-02-14T23:05:46;16.33;;;8.20;;
85121;SDS011;75480;52.260;20.916;2024-02-14T23:07:17;14.20;;;8.30;;
85121;SDS011;75480;52.260;20.916;2024-02-14T23:08:49;13.35;;;7.72;;
85121;SDS011;75480;52.260;20.916;2024-02-14T23:10:20;16.02;;;7.50;;
85121;SDS011;75480;52.260;20.916;2024-02-14T23:11:51;17.00;;;7.78;;
85121;SDS011;75480;52.260;20.916;2024-02-14T23:13:22;15.63;;;7.75;;
85121;SDS011;75480;52.260;20.916;2024-02-14T23:14:53;16.17;;;7.90;;
85121;SDS011;75480;52.260;20.916;2024-02-14T23:16:23;16.70;;;8.10;;
85121;SDS011;75480;52.260;20.916;2024-02-14T23:17:54;14.40;;;7.13;;
85121;SDS011;75480;52.260;20.916;2024-02-14T23:19:25;12.48;;;7.05;;
85121;SDS011;75480;52.260;20.916;2024-02-14T23:20:58;15.45;;;7.32;;
85121;SDS011;75480;52.260;20.916;2024-02-14T23:22:29;16.10;;;7.70;;
85121;SDS011;75480;52.260;20.916;2024-02-14T23:24:00;18.30;;;8.85;;
85121;SDS011;75480;52.260;20.916;2024-02-14T23:25:30;14.65;;;7.07;;
85121;SDS011;75480;52.260;20.916;2024-02-14T23:27:01;11.70;;;7.28;;
85121;SDS011;75480;52.260;20.916;2024-02-14T23:28:32;14.32;;;7.93;;
85121;SDS011;75480;52.260;20.916;2024-02-14T23:30:04;13.85;;;7.45;;
85121;SDS011;75480;52.260;20.916;2024-02-14T23:31:38;12.77;;;6.78;;
85121;SDS011;75480;52.260;20.916;2024-02-14T23:33:10;15.98;;;7.78;;
85121;SDS011;75480;52.260;20.916;2024-02-14T23:34:42;12.82;;;6.95;;
85121;SDS011;75480;52.260;20.916;2024-02-14T23:36:13;11.77;;;6.88;;
85121;SDS011;75480;52.260;20.916;2024-02-14T23:37:44;13.10;;;7.15;;
85121;SDS011;75480;52.260;20.916;2024-02-14T23:39:14;12.85;;;7.13;;
85121;SDS011;75480;52.260;20.916;2024-02-14T23:40:46;12.45;;;7.25;;
85121;SDS011;75480;52.260;20.916;2024-02-14T23:42:17;15.07;;;7.70;;
85121;SDS011;75480;52.260;20.916;2024-02-14T23:43:47;17.02;;;8.10;;
85121;SDS011;75480;52.260;20.916;2024-02-14T23:45:18;15.05;;;7.35;;
85121;SDS011;75480;52.260;20.916;2024-02-14T23:46:50;16.90;;;7.55;;
85121;SDS011;75480;52.260;20.916;2024-02-14T23:48:21;13.85;;;7.22;;
85121;SDS011;75480;52.260;20.916;2024-02-14T23:49:53;12.98;;;7.60;;
85121;SDS011;75480;52.260;20.916;2024-02-14T23:51:24;15.13;;;7.78;;
85121;SDS011;75480;52.260;20.916;2024-02-14T23:52:55;16.45;;;7.32;;
85121;SDS011;75480;52.260;20.916;2024-02-14T23:54:26;15.38;;;7.32;;
85121;SDS011;75480;52.260;20.916;2024-02-14T23:55:57;12.90;;;7.25;;
85121;SDS011;75480;52.260;20.916;2024-02-14T23:57:28;14.55;;;7.22;;
85121;SDS011;75480;52.260;20.916;2024-02-14T23:58:58;14.52;;;7.72;;
